Time;durP1;ratioP1;P1;durP2;ratioP2;P2;SDS_P1;SDS_P2;PMS_P1;PMS_P2;Temp;Humidity;BMP_temperature;BMP_pressure;BME280_temperature;BME280_humidity;BME280_pressure;Samples;Min_cycle;Max_cycle;Signal;HPM_P1;HPM_P2
2021/10/01 00:00:18;;;;;;;0.80;0.80;;;;;;;10.93;59.86;102065.59;689109;28;23429;-69
2021/10/01 00:00:39;;;;;;;0.80;0.80;;;;;;;10.93;59.90;102052.94;687784;28;22389;-70
2021/10/01 00:01:01;;;;;;;0.70;0.70;;;;;;;10.92;59.84;102064.75;686982;28;23478;-69
2021/10/01 00:01:22;;;;;;;0.70;0.70;;;;;;;10.91;59.80;102059.47;687359;28;46212;-70
2021/10/01 00:01:43;;;;;;;0.60;0.60;;;;;;;10.88;59.88;102052.53;688488;28;21522;-70
2021/10/01 00:02:04;;;;;;;0.73;0.73;;;;;;;10.91;60.00;102062.19;687507;28;21519;-69
2021/10/01 00:02:26;;;;;;;0.80;0.80;;;;;;;10.92;59.70;102050.38;688194;28;22347;-70
2021/10/01 00:02:47;;;;;;;0.60;0.60;;;;;;;10.94;59.68;102056.47;689113;28;6152;-70
2021/10/01 00:03:08;;;;;;;0.60;0.60;;;;;;;10.93;59.81;102052.09;688180;28;22377;-69
2021/10/01 00:03:29;;;;;;;0.77;0.77;;;;;;;10.93;60.15;102052.94;688300;28;20905;-69
2021/10/01 00:03:51;;;;;;;0.90;0.90;;;;;;;10.94;60.17;102057.34;688573;28;22488;-69
2021/10/01 00:04:12;;;;;;;0.70;0.70;;;;;;;10.94;60.27;102054.66;687377;28;44376;-68
2021/10/01 00:04:34;;;;;;;0.70;0.70;;;;;;;10.96;60.31;102054.50;688091;28;22418;-70
2021/10/01 00:04:55;;;;;;;0.68;0.68;;;;;;;10.95;60.04;102053.63;687112;28;46624;-68
2021/10/01 00:05:22;;;;;;;0.80;0.80;;;;;;;10.97;60.26;102056.19;688100;28;21530;-69
2021/10/01 00:05:43;;;;;;;0.77;0.77;;;;;;;10.97;60.41;102056.19;683666;28;138433;-70
2021/10/01 00:06:05;;;;;;;0.70;0.70;;;;;;;10.98;60.19;102056.03;687780;28;22261;-69
2021/10/01 00:06:26;;;;;;;0.70;0.70;;;;;;;10.99;60.36;102057.75;686947;28;47399;-69
2021/10/01 00:06:48;;;;;;;0.70;0.70;;;;;;;10.99;60.41;102056.91;688184;28;21498;-68
2021/10/01 00:07:11;;;;;;;0.60;0.60;;;;;;;10.99;60.36;102054.22;687296;28;46376;-69
2021/10/01 00:07:32;;;;;;;0.50;0.50;;;;;;;10.98;60.27;102056.03;687361;28;44434;-69
2021/10/01 00:07:54;;;;;;;0.40;0.40;;;;;;;10.97;59.88;102058.88;687758;28;22414;-69
2021/10/01 00:08:15;;;;;;;0.60;0.60;;;;;;;10.97;60.17;102050.78;687308;28;45275;-69
2021/10/01 00:08:36;;;;;;;0.50;0.50;;;;;;;10.99;60.26;102060.47;688112;28;24353;-69
2021/10/01 00:08:57;;;;;;;0.50;0.50;;;;;;;10.98;60.05;102057.91;686691;28;44278;-69
2021/10/01 00:09:18;;;;;;;0.50;0.50;;;;;;;10.97;60.31;102054.34;687510;28;46318;-69
2021/10/01 00:09:40;;;;;;;0.45;0.45;;;;;;;10.97;60.25;102058.88;688514;28;22367;-69
2021/10/01 00:10:01;;;;;;;0.60;0.60;;;;;;;10.97;60.20;102056.19;687000;28;45284;-68
2021/10/01 00:10:22;;;;;;;0.60;0.60;;;;;;;10.97;59.93;102058.88;688196;28;22409;-68
2021/10/01 00:10:43;;;;;;;0.57;0.57;;;;;;;10.97;59.96;102056.19;687495;28;23441;-69
2021/10/01 00:11:05;;;;;;;0.50;0.50;;;;;;;10.98;59.80;102056.03;688210;28;22515;-69
2021/10/01 00:11:26;;;;;;;0.60;0.60;;;;;;;10.99;60.01;102056.91;687551;28;46461;-69
2021/10/01 00:11:51;;;;;;;0.63;0.63;;;;;;;10.96;60.01;102046.41;688255;28;23538;-69
2021/10/01 00:12:14;;;;;;;0.57;0.57;;;;;;;10.96;59.78;102046.41;684902;28;115028;-70
2021/10/01 00:12:35;;;;;;;0.50;0.50;;;;;;;10.96;59.87;102049.94;686517;28;67338;-69
2021/10/01 00:12:56;;;;;;;0.50;0.50;;;;;;;10.94;59.88;102045.66;688647;28;22405;-69
2021/10/01 00:13:17;;;;;;;0.60;0.60;;;;;;;10.94;59.91;102049.25;688310;28;22232;-69
2021/10/01 00:13:39;;;;;;;0.55;0.55;;;;;;;10.94;59.99;102045.66;688204;28;23477;-69
2021/10/01 00:14:00;;;;;;;0.50;0.50;;;;;;;10.94;60.25;102045.66;688069;28;23750;-70
2021/10/01 00:14:25;;;;;;;0.50;0.50;;;;;;;10.92;60.08;102050.38;686827;28;46674;-70
2021/10/01 00:14:46;;;;;;;0.60;0.60;;;;;;;10.92;60.47;102051.22;685592;28;92124;-70
2021/10/01 00:15:08;;;;;;;0.60;0.60;;;;;;;10.91;60.50;102045.97;687024;28;44074;-69
2021/10/01 00:15:31;;;;;;;0.50;0.50;;;;;;;10.92;60.20;102039.56;687539;28;45240;-69
2021/10/01 00:15:53;;;;;;;0.40;0.40;;;;;;;10.94;60.37;102038.44;685767;28;70444;-70
2021/10/01 00:16:14;;;;;;;0.50;0.50;;;;;;;10.95;60.50;102041.97;687823;28;22432;-69
2021/10/01 00:16:35;;;;;;;0.57;0.57;;;;;;;10.97;60.67;102040.84;687396;28;46415;-70
2021/10/01 00:16:57;;;;;;;0.50;0.50;;;;;;;10.96;60.54;102043.69;687797;28;22301;-69
2021/10/01 00:17:19;;;;;;;0.45;0.45;;;;;;;10.98;60.29;102039.81;687481;28;46467;-69
2021/10/01 00:17:41;;;;;;;0.60;0.60;;;;;;;10.98;60.19;102038.97;686400;28;46570;-69
2021/10/01 00:18:03;;;;;;;0.60;0.60;;;;;;;10.98;60.18;102044.38;688089;28;22372;-69
2021/10/01 00:18:25;;;;;;;0.55;0.55;;;;;;;10.99;60.48;102040.69;686733;28;69412;-69
2021/10/01 00:18:46;;;;;;;0.60;0.60;;;;;;;10.99;60.41;102048.81;688081;28;23445;-69
2021/10/01 00:19:07;;;;;;;0.60;0.60;;;;;;;10.98;60.31;102038.97;688096;28;23428;-69
2021/10/01 00:19:31;;;;;;;0.60;0.60;;;;;;;10.97;60.50;102037.25;687938;28;23722;-70
2021/10/01 00:19:52;;;;;;;0.50;0.50;;;;;;;10.97;60.38;102043.53;685523;28;92585;-69
2021/10/01 00:20:13;;;;;;;0.40;0.40;;;;;;;10.97;60.63;102035.44;689111;28;21549;-69
2021/10/01 00:20:34;;;;;;;0.50;0.50;;;;;;;10.96;60.41;102035.59;688432;28;44020;-70
2021/10/01 00:20:58;;;;;;;0.60;0.60;;;;;;;10.96;60.24;102039.13;688728;28;22403;-69
2021/10/01 00:21:19;;;;;;;0.57;0.57;;;;;;;10.98;60.59;102038.97;687472;28;69923;-69
2021/10/01 00:21:40;;;;;;;0.47;0.47;;;;;;;11.00;60.46;102039.66;688054;28;21538;-69
2021/10/01 00:22:02;;;;;;;0.40;0.40;;;;;;;10.98;60.48;102042.53;687939;28;23485;-69
2021/10/01 00:22:24;;;;;;;0.50;0.50;;;;;;;10.98;60.31;102038.97;687332;28;44478;-69
2021/10/01 00:22:45;;;;;;;0.60;0.60;;;;;;;10.98;60.25;102038.97;686789;28;46571;-69
2021/10/01 00:23:07;;;;;;;0.50;0.50;;;;;;;10.98;60.12;102033.56;687238;28;45268;-69
2021/10/01 00:23:28;;;;;;;0.50;0.50;;;;;;;10.97;60.44;102037.25;688076;28;22399;-69
2021/10/01 00:23:50;;;;;;;0.50;0.50;;;;;;;10.96;60.41;102033.72;688429;28;22383;-69
2021/10/01 00:24:11;;;;;;;0.60;0.60;;;;;;;10.97;60.31;102034.56;687181;28;44452;-69
2021/10/01 00:24:33;;;;;;;0.60;0.60;;;;;;;10.95;60.43;102034.72;688306;28;22389;-69
2021/10/01 00:24:55;;;;;;;0.52;0.52;;;;;;;10.93;60.47;102036.72;688654;28;4307;-70
2021/10/01 00:25:16;;;;;;;0.45;0.45;;;;;;;10.92;60.55;102032.31;687376;28;45275;-69
2021/10/01 00:25:37;;;;;;;0.50;0.50;;;;;;;10.93;60.53;102042.13;688328;28;22820;-69
2021/10/01 00:25:59;;;;;;;0.60;0.60;;;;;;;10.93;60.40;102038.56;687029;28;46721;-69
2021/10/01 00:26:21;;;;;;;0.45;0.45;;;;;;;10.92;60.53;102035.00;688869;28;21408;-69
2021/10/01 00:26:42;;;;;;;0.47;0.47;;;;;;;10.92;60.56;102039.56;688077;28;46400;-69
2021/10/01 00:27:08;;;;;;;0.47;0.47;;;;;;;10.90;60.30;102034.31;689932;28;21535;-69
2021/10/01 00:27:30;;;;;;;0.60;0.60;;;;;;;10.91;60.24;102035.16;682440;28;138393;-69
2021/10/01 00:27:52;;;;;;;0.50;0.50;;;;;;;10.90;60.22;102038.88;684331;28;69495;-69
2021/10/01 00:28:13;;;;;;;0.40;0.40;;;;;;;10.91;60.53;102035.16;685061;28;46332;-69
2021/10/01 00:28:35;;;;;;;0.40;0.40;;;;;;;10.93;60.24;102035.88;685934;28;21199;-69
2021/10/01 00:28:56;;;;;;;0.50;0.50;;;;;;;10.92;60.64;102035.00;682740;28;22241;-68
2021/10/01 00:29:18;;;;;;;0.50;0.50;;;;;;;10.95;60.43;102031.16;683415;28;22411;-69
2021/10/01 00:29:39;;;;;;;0.50;0.50;;;;;;;10.95;60.74;102032.00;685050;28;45827;-69
2021/10/01 00:30:00;;;;;;;0.40;0.40;;;;;;;10.96;60.48;102024.78;685723;28;21531;-69
2021/10/01 00:30:23;;;;;;;0.40;0.40;;;;;;;10.99;60.53;102035.28;686211;28;22412;-68
2021/10/01 00:30:44;;;;;;;0.50;0.50;;;;;;;11.00;60.59;102034.25;685691;28;69489;-69
2021/10/01 00:31:05;;;;;;;0.60;0.60;;;;;;;11.02;60.61;102032.28;686944;28;22403;-69
2021/10/01 00:31:27;;;;;;;0.60;0.60;;;;;;;11.02;60.43;102032.28;686985;28;23382;-69
2021/10/01 00:31:49;;;;;;;0.50;0.50;;;;;;;11.03;60.28;102027.72;686419;28;46325;-69
2021/10/01 00:32:10;;;;;;;0.40;0.40;;;;;;;11.01;60.26;102022.47;685617;28;45374;-69
2021/10/01 00:32:31;;;;;;;0.55;0.55;;;;;;;11.03;60.22;102031.28;686494;28;46332;-69
2021/10/01 00:32:53;;;;;;;0.60;0.60;;;;;;;11.05;60.15;102020.31;688369;28;21367;-69
2021/10/01 00:33:14;;;;;;;0.43;0.43;;;;;;;11.05;60.09;102026.59;687556;28;46327;-69
2021/10/01 00:33:36;;;;;;;0.40;0.40;;;;;;;11.04;59.97;102027.56;688275;28;22172;-69
2021/10/01 00:33:57;;;;;;;0.43;0.43;;;;;;;11.04;59.96;102026.72;685510;28;43723;-69
2021/10/01 00:34:18;;;;;;;0.60;0.60;;;;;;;11.04;60.08;102024.03;686119;28;23534;-69
2021/10/01 00:34:40;;;;;;;0.50;0.50;;;;;;;11.04;60.08;102026.72;683510;28;23776;-70
2021/10/01 00:35:02;;;;;;;0.47;0.47;;;;;;;11.03;60.18;102033.97;682806;28;22439;-70
2021/10/01 00:35:23;;;;;;;0.32;0.32;;;;;;;11.04;60.06;102027.56;681919;28;69623;-69
2021/10/01 00:35:44;;;;;;;0.50;0.50;;;;;;;11.05;60.12;102028.41;684686;28;46688;-69
2021/10/01 00:36:05;;;;;;;0.40;0.40;;;;;;;11.05;60.24;102034.69;685142;28;44418;-70
2021/10/01 00:36:30;;;;;;;0.40;0.40;;;;;;;11.05;59.92;102028.41;687839;28;1470;-70
2021/10/01 00:36:51;;;;;;;0.30;0.30;;;;;;;11.06;59.92;102030.13;686571;28;69915;-69
2021/10/01 00:37:12;;;;;;;0.38;0.38;;;;;;;11.05;59.96;102026.59;688141;28;19417;-69
2021/10/01 00:37:33;;;;;;;0.50;0.50;;;;;;;11.05;59.98;102032.00;686730;28;22401;-71
2021/10/01 00:37:57;;;;;;;0.40;0.40;;;;;;;11.04;59.80;102024.03;686655;28;23425;-69
2021/10/01 00:38:19;;;;;;;0.30;0.30;;;;;;;11.04;59.89;102027.56;684639;28;92298;-68
2021/10/01 00:38:40;;;;;;;0.30;0.30;;;;;;;11.04;59.78;102027.56;684085;28;21531;-69
2021/10/01 00:39:02;;;;;;;0.40;0.40;;;;;;;11.05;59.87;102026.59;681942;28;22391;-69
2021/10/01 00:39:24;;;;;;;0.40;0.40;;;;;;;11.06;59.96;102024.72;681038;28;67525;-69
2021/10/01 00:39:47;;;;;;;0.30;0.30;;;;;;;11.06;59.82;102027.44;685207;28;1655;-70
2021/10/01 00:40:09;;;;;;;0.30;0.30;;;;;;;11.07;59.69;102021.03;684057;28;22392;-70
2021/10/01 00:40:30;;;;;;;0.40;0.40;;;;;;;11.07;59.74;102026.44;683445;28;67566;-69
2021/10/01 00:40:52;;;;;;;0.40;0.40;;;;;;;11.05;59.84;102017.59;686125;28;23509;-69
2021/10/01 00:41:14;;;;;;;0.40;0.40;;;;;;;11.09;59.69;102024.44;687644;28;46426;-69
2021/10/01 00:41:37;;;;;;;0.30;0.30;;;;;;;11.05;59.71;102023.88;687747;28;69473;-69
2021/10/01 00:41:58;;;;;;;0.30;0.30;;;;;;;11.09;59.97;102021.72;689816;28;22362;-69
2021/10/01 00:42:20;;;;;;;0.40;0.40;;;;;;;11.11;59.89;102027.81;689516;28;23407;-70
2021/10/01 00:42:42;;;;;;;0.40;0.40;;;;;;;11.11;59.87;102026.00;685855;28;44425;-69
2021/10/01 00:43:04;;;;;;;0.30;0.30;;;;;;;11.10;59.44;102021.56;685554;28;70465;-69
2021/10/01 00:43:26;;;;;;;0.30;0.30;;;;;;;11.08;59.70;102022.72;686411;28;46345;-69
2021/10/01 00:43:47;;;;;;;0.40;0.40;;;;;;;11.09;59.77;102019.00;688812;28;46485;-69
2021/10/01 00:44:08;;;;;;;0.40;0.40;;;;;;;11.10;59.66;102023.44;686492;28;21191;-69
2021/10/01 00:44:29;;;;;;;0.30;0.30;;;;;;;11.10;59.66;102029.69;686915;28;22267;-69
2021/10/01 00:44:54;;;;;;;0.30;0.30;;;;;;;11.11;59.61;102019.72;686577;28;24497;-69
2021/10/01 00:45:15;;;;;;;0.30;0.30;;;;;;;11.09;59.48;102022.56;681791;28;92606;-68
2021/10/01 00:45:36;;;;;;;0.40;0.40;;;;;;;11.12;59.68;102026.84;684271;28;21565;-68
2021/10/01 00:45:58;;;;;;;0.40;0.40;;;;;;;11.12;59.72;102027.66;684358;28;21485;-70
2021/10/01 00:46:19;;;;;;;0.30;0.30;;;;;;;11.10;59.46;102018.03;686309;28;46328;-70
2021/10/01 00:46:40;;;;;;;0.30;0.30;;;;;;;11.10;59.44;102018.88;688275;28;22389;-69
2021/10/01 00:47:01;;;;;;;0.40;0.40;;;;;;;11.10;59.33;102021.56;686127;28;22414;-69
2021/10/01 00:47:24;;;;;;;0.40;0.40;;;;;;;11.10;59.73;102024.28;686348;28;22410;-69
2021/10/01 00:47:45;;;;;;;0.30;0.30;;;;;;;11.09;59.45;102017.16;684877;28;68345;-69
2021/10/01 00:48:07;;;;;;;0.30;0.30;;;;;;;11.09;59.82;102019.84;683449;28;46424;-69
2021/10/01 00:48:28;;;;;;;0.38;0.38;;;;;;;11.09;59.77;102019.84;684376;28;23420;-69
2021/10/01 00:48:50;;;;;;;0.40;0.40;;;;;;;11.10;59.71;102016.16;685060;28;21538;-69
2021/10/01 00:49:11;;;;;;;0.40;0.40;;;;;;;11.11;59.72;102019.72;686426;28;47728;-70
2021/10/01 00:49:32;;;;;;;0.40;0.40;;;;;;;11.10;59.73;102024.28;689706;28;22417;-69
2021/10/01 00:49:53;;;;;;;0.30;0.30;;;;;;;11.09;59.79;102021.72;689112;28;23484;-70
2021/10/01 00:50:15;;;;;;;0.40;0.40;;;;;;;11.09;59.82;102021.72;687982;28;22445;-70
2021/10/01 00:50:36;;;;;;;0.40;0.40;;;;;;;11.09;59.86;102019.00;684849;28;46166;-70
2021/10/01 00:50:58;;;;;;;0.30;0.30;;;;;;;11.09;60.03;102021.72;685429;28;22398;-69
2021/10/01 00:51:22;;;;;;;0.30;0.30;;;;;;;11.11;60.15;102017.88;682436;28;44378;-69
2021/10/01 00:51:44;;;;;;;0.40;0.40;;;;;;;11.11;59.80;102017.00;681295;28;91451;-69
2021/10/01 00:52:06;;;;;;;0.40;0.40;;;;;;;11.10;60.04;102015.31;680966;28;46467;-70
2021/10/01 00:52:27;;;;;;;0.30;0.30;;;;;;;11.10;60.03;102015.31;683454;28;46439;-70
2021/10/01 00:52:49;;;;;;;0.30;0.30;;;;;;;11.10;60.10;102028.84;686385;28;22394;-69
2021/10/01 00:53:11;;;;;;;0.38;0.38;;;;;;;11.09;59.82;102021.72;686187;28;47206;-69
2021/10/01 00:53:32;;;;;;;0.40;0.40;;;;;;;11.09;59.97;102021.72;685858;28;46447;-69
2021/10/01 00:53:55;;;;;;;0.40;0.40;;;;;;;11.08;60.30;102020.88;687094;28;21605;-68
2021/10/01 00:54:16;;;;;;;0.30;0.30;;;;;;;11.09;60.07;102019.84;685554;28;68363;-69
2021/10/01 00:54:38;;;;;;;0.30;0.30;;;;;;;11.08;60.13;102012.78;687629;28;46346;-69
2021/10/01 00:55:01;;;;;;;0.43;0.43;;;;;;;11.09;60.18;102022.56;686569;28;69296;-69
2021/10/01 00:55:22;;;;;;;0.40;0.40;;;;;;;11.08;59.77;102020.88;686899;28;92906;-69
2021/10/01 00:55:44;;;;;;;0.32;0.32;;;;;;;11.08;59.83;102020.00;690102;28;46287;-68
2021/10/01 00:56:06;;;;;;;0.30;0.30;;;;;;;11.09;59.80;102017.16;690686;28;21536;-70
2021/10/01 00:56:28;;;;;;;0.40;0.40;;;;;;;11.09;60.04;102019.00;686604;28;44979;-69
2021/10/01 00:56:49;;;;;;;0.40;0.40;;;;;;;11.09;59.89;102013.59;688662;28;22413;-68
2021/10/01 00:57:10;;;;;;;0.30;0.30;;;;;;;11.09;60.05;102013.59;687508;28;47110;-69
2021/10/01 00:57:32;;;;;;;0.30;0.30;;;;;;;11.03;60.01;102011.50;687737;28;45272;-69
2021/10/01 00:57:54;;;;;;;0.32;0.32;;;;;;;11.08;60.17;102020.00;686711;28;43667;-69
2021/10/01 00:58:15;;;;;;;0.40;0.40;;;;;;;11.08;60.02;102014.59;685124;28;46297;-69
2021/10/01 00:58:36;;;;;;;0.40;0.40;;;;;;;11.08;60.09;102014.59;687085;28;22428;-68
2021/10/01 00:58:59;;;;;;;0.30;0.30;;;;;;;11.06;59.84;102014.75;684022;28;21309;-69
2021/10/01 00:59:20;;;;;;;0.30;0.30;;;;;;;11.07;60.15;102016.47;683034;28;45280;-69
2021/10/01 00:59:41;;;;;;;0.45;0.45;;;;;;;11.08;60.12;102014.59;684177;28;23307;-69
2021/10/01 01:00:03;;;;;;;0.40;0.40;;;;;;;11.07;60.07;102019.16;681455;28;22475;-69
2021/10/01 01:00:28;;;;;;;0.30;0.30;;;;;;;11.09;60.02;102010.91;680363;28;66884;-68
2021/10/01 01:01:01;;;;;;;0.30;0.30;;;;;;;11.09;60.01;102016.31;681232;28;90216;-68
2021/10/01 01:01:22;;;;;;;0.40;0.40;;;;;;;11.09;60.08;102011.75;682124;28;138019;-69
2021/10/01 01:01:44;;;;;;;0.40;0.40;;;;;;;11.08;60.13;102007.38;683801;28;22405;-69
2021/10/01 01:02:06;;;;;;;0.30;0.30;;;;;;;11.08;60.07;102011.91;684103;28;22418;-68
2021/10/01 01:02:27;;;;;;;0.30;0.30;;;;;;;11.08;60.13;102010.06;681488;28;67546;-69
2021/10/01 01:02:50;;;;;;;0.40;0.40;;;;;;;11.08;59.94;102015.47;681440;28;22180;-68
2021/10/01 01:03:11;;;;;;;0.40;0.40;;;;;;;11.08;60.00;102007.38;681174;28;45773;-69
2021/10/01 01:03:33;;;;;;;0.30;0.30;;;;;;;11.07;59.96;102010.22;681661;28;23445;-69
2021/10/01 01:03:57;;;;;;;0.30;0.30;;;;;;;11.05;60.31;102007.66;684235;28;44413;-69
2021/10/01 01:04:18;;;;;;;0.30;0.30;;;;;;;11.05;60.19;102007.66;681335;28;92164;-69
2021/10/01 01:04:43;;;;;;;0.40;0.40;;;;;;;11.04;59.94;102007.81;684964;28;46568;-69
2021/10/01 01:05:05;;;;;;;0.30;0.30;;;;;;;11.05;60.10;102013.06;683367;28;114143;-69
2021/10/01 01:05:31;;;;;;;0.30;0.30;;;;;;;11.04;60.08;102008.66;687370;28;46317;-69
2021/10/01 01:05:58;;;;;;;0.35;0.35;;;;;;;11.03;60.18;102003.38;684074;28;138789;-69
2021/10/01 01:06:32;;;;;;;0.40;0.40;;;;;;;11.00;60.25;102005.41;685718;28;100582;-69
2021/10/01 01:07:00;;;;;;;0.30;0.30;;;;;;;11.04;60.03;102011.34;685665;28;104636;-70
2021/10/01 01:07:28;;;;;;;0.30;0.30;;;;;;;11.05;59.96;102013.06;681883;28;140236;-69
2021/10/01 01:07:55;;;;;;;0.40;0.40;;;;;;;11.05;59.97;102010.38;680989;28;160964;-69
2021/10/01 01:08:21;;;;;;;0.30;0.30;;;;;;;11.07;60.33;102004.81;683189;28;135691;-68
2021/10/01 01:08:54;;;;;;;0.30;0.30;;;;;;;11.06;60.15;101998.53;684773;28;59178;-70
2021/10/01 01:09:25;;;;;;;0.43;0.43;;;;;;;11.08;59.90;102009.19;682025;28;161051;-71
2021/10/01 01:09:51;;;;;;;0.40;0.40;;;;;;;11.07;59.95;102002.94;684846;28;137548;-69
2021/10/01 01:10:19;;;;;;;0.30;0.30;;;;;;;11.04;59.93;102002.41;683282;28;180727;-69
2021/10/01 01:10:46;;;;;;;0.40;0.40;;;;;;;11.04;59.98;102005.09;681801;28;136302;-69
2021/10/01 01:11:14;;;;;;;0.40;0.40;;;;;;;11.02;60.02;102004.38;682369;28;156875;-69
2021/10/01 01:11:46;;;;;;;0.35;0.35;;;;;;;11.04;60.42;102008.66;682792;28;136255;-69
2021/10/01 01:12:20;;;;;;;0.30;0.30;;;;;;;11.06;60.42;101998.53;680330;28;137628;-69
2021/10/01 01:12:44;;;;;;;0.40;0.40;;;;;;;11.06;60.02;102003.94;680136;28;137881;-70
2021/10/01 01:13:09;;;;;;;0.30;0.30;;;;;;;11.06;60.33;102014.75;679362;28;90740;-69
2021/10/01 01:13:36;;;;;;;0.30;0.30;;;;;;;11.06;60.30;102011.19;679609;28;138125;-69
2021/10/01 01:14:03;;;;;;;0.40;0.40;;;;;;;11.02;60.39;102010.66;680992;28;136472;-70
2021/10/01 01:14:31;;;;;;;0.40;0.40;;;;;;;10.99;60.41;102003.69;679667;28;137946;-69
2021/10/01 01:14:55;;;;;;;0.30;0.30;;;;;;;11.02;60.36;102015.19;682499;28;138764;-69
2021/10/01 01:15:18;;;;;;;0.30;0.30;;;;;;;10.98;60.29;102007.38;682507;28;93016;-69
2021/10/01 01:15:46;;;;;;;0.40;0.40;;;;;;;10.99;60.56;102002.84;685304;28;69339;-70
2021/10/01 01:16:11;;;;;;;0.40;0.40;;;;;;;11.00;60.34;102009.94;679501;28;157790;-69
2021/10/01 01:16:36;;;;;;;0.30;0.30;;;;;;;10.99;60.48;102006.38;681041;28;136704;-70
2021/10/01 01:16:58;;;;;;;0.40;0.40;;;;;;;10.98;60.25;102010.09;684265;28;23698;-69
2021/10/01 01:17:23;;;;;;;0.40;0.40;;;;;;;10.96;60.20;102003.97;686300;28;46316;-69
2021/10/01 01:17:45;;;;;;;0.30;0.30;;;;;;;10.98;60.43;102010.09;679327;28;113979;-68
2021/10/01 01:18:12;;;;;;;0.30;0.30;;;;;;;10.97;60.16;102011.09;680257;28;114011;-70
2021/10/01 01:18:38;;;;;;;0.40;0.40;;;;;;;10.95;60.29;101996.88;680987;28;113663;-69
2021/10/01 01:19:01;;;;;;;0.40;0.40;;;;;;;10.94;60.42;102013.22;680704;28;137656;-69
2021/10/01 01:19:29;;;;;;;0.30;0.30;;;;;;;10.94;60.64;102007.81;683675;28;46485;-68
2021/10/01 01:20:05;;;;;;;0.30;0.30;;;;;;;10.93;60.59;102008.84;681904;28;161320;-69
2021/10/01 01:20:29;;;;;;;0.40;0.40;;;;;;;10.92;60.74;101999.88;681053;28;181218;-69
2021/10/01 01:20:52;;;;;;;0.40;0.40;;;;;;;10.93;60.51;102004.28;681210;28;114976;-70
2021/10/01 01:21:18;;;;;;;0.30;0.30;;;;;;;10.92;60.71;102007.97;684835;28;69466;-69
2021/10/01 01:21:53;;;;;;;0.40;0.40;;;;;;;10.93;60.36;102006.97;681783;28;137893;-69
2021/10/01 01:22:23;;;;;;;0.40;0.40;;;;;;;10.93;60.34;102003.44;682355;28;137523;-69
2021/10/01 01:22:52;;;;;;;0.30;0.30;;;;;;;10.92;60.27;101999.88;684449;28;138120;-69
2021/10/01 01:23:27;;;;;;;0.40;0.40;;;;;;;10.92;60.54;101996.31;684274;28;136164;-69
2021/10/01 01:23:59;;;;;;;0.40;0.40;;;;;;;10.91;60.76;102000.00;684556;28;137496;-69
2021/10/01 01:24:40;;;;;;;0.30;0.30;;;;;;;10.89;60.58;102004.72;685386;28;136598;-69
2021/10/01 01:25:54;;;;;;;0.40;0.40;;;;;;;10.87;60.77;101994.06;683794;28;156463;-69
2021/10/01 01:26:25;;;;;;;0.30;0.30;;;;;;;10.86;60.91;101995.09;684808;28;157286;-69
2021/10/01 01:27:09;;;;;;;0.40;0.40;;;;;;;10.88;60.81;102001.19;684898;28;136207;-69
2021/10/01 01:27:43;;;;;;;0.30;0.30;;;;;;;10.88;60.89;102001.19;683069;28;137346;-70
2021/10/01 01:28:09;;;;;;;0.40;0.40;;;;;;;10.89;60.81;101994.75;680870;28;137396;-70
2021/10/01 01:28:37;;;;;;;0.40;0.40;;;;;;;10.90;60.96;102001.03;677698;28;137872;-69
2021/10/01 01:29:08;;;;;;;0.30;0.30;;;;;;;10.90;60.88;101992.94;680395;28;138159;-69
2021/10/01 01:29:34;;;;;;;0.38;0.38;;;;;;;10.91;61.08;101994.59;681465;28;137505;-69
2021/10/01 01:30:02;;;;;;;0.50;0.50;;;;;;;10.91;60.82;101991.91;680370;28;138208;-69
2021/10/01 01:30:25;;;;;;;0.40;0.40;;;;;;;10.92;60.90;101990.91;680048;28;138106;-69
2021/10/01 01:31:02;;;;;;;0.30;0.30;;;;;;;10.92;60.97;101991.75;678976;28;134749;-69
2021/10/01 01:31:28;;;;;;;0.40;0.40;;;;;;;10.96;60.91;101995.88;679761;28;138109;-69
2021/10/01 01:31:59;;;;;;;0.40;0.40;;;;;;;10.96;61.08;101995.03;680704;28;137828;-69
2021/10/01 01:32:24;;;;;;;0.30;0.30;;;;;;;10.96;60.97;101995.88;683592;28;137949;-69
2021/10/01 01:32:48;;;;;;;0.30;0.30;;;;;;;10.95;60.70;101990.63;685902;28;115915;-69
2021/10/01 01:33:13;;;;;;;0.40;0.40;;;;;;;10.94;60.86;101997.88;685532;28;92135;-69
2021/10/01 01:33:39;;;;;;;0.40;0.40;;;;;;;10.93;60.72;101996.16;683518;28;92074;-69
2021/10/01 01:34:01;;;;;;;0.30;0.30;;;;;;;10.94;60.66;101992.47;678877;28;138267;-69
2021/10/01 01:34:25;;;;;;;0.40;0.40;;;;;;;10.94;60.71;101988.91;682473;28;46499;-69
2021/10/01 01:34:50;;;;;;;0.40;0.40;;;;;;;10.94;60.89;101994.31;683143;28;138563;-69
2021/10/01 01:35:14;;;;;;;0.40;0.40;;;;;;;10.92;60.69;101991.75;682079;28;89516;-69
2021/10/01 01:35:37;;;;;;;0.30;0.30;;;;;;;10.91;60.65;101995.47;680766;28;92359;-69
2021/10/01 01:35:58;;;;;;;0.40;0.40;;;;;;;10.93;61.11;101995.34;681598;28;67272;-69
2021/10/01 01:36:23;;;;;;;0.50;0.50;;;;;;;10.93;60.87;101998.88;679065;29;93143;-69
2021/10/01 01:36:48;;;;;;;0.40;0.40;;;;;;;10.93;60.98;101992.63;678719;28;67520;-69
2021/10/01 01:37:11;;;;;;;0.30;0.30;;;;;;;10.92;60.73;101996.31;681066;28;90504;-69
2021/10/01 01:37:37;;;;;;;0.40;0.40;;;;;;;10.91;60.68;101994.59;682016;28;92296;-70
2021/10/01 01:38:04;;;;;;;0.45;0.45;;;;;;;10.91;60.81;101997.31;681623;28;114988;-69
2021/10/01 01:38:31;;;;;;;0.32;0.32;;;;;;;10.93;60.62;102000.75;682786;28;60462;-69
2021/10/01 01:38:54;;;;;;;0.30;0.30;;;;;;;10.92;60.77;102005.28;681625;28;92539;-69
2021/10/01 01:39:16;;;;;;;0.40;0.40;;;;;;;10.92;60.83;102002.56;679920;28;69496;-70
2021/10/01 01:39:40;;;;;;;0.43;0.43;;;;;;;10.90;60.70;101999.16;678741;28;44313;-69
2021/10/01 01:40:03;;;;;;;0.40;0.40;;;;;;;10.91;60.59;102000.00;678748;28;90363;-69
2021/10/01 01:40:27;;;;;;;0.30;0.30;;;;;;;10.90;60.93;101995.63;681358;28;69466;-68
2021/10/01 01:40:52;;;;;;;0.40;0.40;;;;;;;10.90;60.77;101998.34;682234;28;91834;-70
2021/10/01 01:41:13;;;;;;;0.47;0.47;;;;;;;10.90;60.67;101995.63;682211;28;113636;-69
2021/10/01 01:41:36;;;;;;;0.40;0.40;;;;;;;10.87;60.80;101999.47;685032;28;45256;-69
2021/10/01 01:41:59;;;;;;;0.30;0.30;;;;;;;10.86;60.73;101992.38;683280;28;45436;-69
2021/10/01 01:42:21;;;;;;;0.40;0.40;;;;;;;10.84;60.85;101985.41;684111;28;68387;-69
2021/10/01 01:42:44;;;;;;;0.35;0.35;;;;;;;10.84;60.77;101993.50;682781;28;46315;-69
2021/10/01 01:43:06;;;;;;;0.30;0.30;;;;;;;10.84;61.00;101990.81;682651;28;44117;-69
2021/10/01 01:43:29;;;;;;;0.38;0.38;;;;;;;10.84;61.06;101998.91;682549;28;69315;-70
2021/10/01 01:43:53;;;;;;;0.40;0.40;;;;;;;10.82;60.87;101994.50;682561;28;46399;-69
2021/10/01 01:44:14;;;;;;;0.40;0.40;;;;;;;10.79;61.09;101992.09;677600;29;115955;-69
2021/10/01 01:44:35;;;;;;;0.30;0.30;;;;;;;10.80;61.11;101987.56;680344;28;22413;-69
2021/10/01 01:44:58;;;;;;;0.30;0.30;;;;;;;10.79;60.88;101997.50;680980;28;22438;-69
2021/10/01 01:45:21;;;;;;;0.40;0.40;;;;;;;10.79;60.93;101997.50;681034;28;70249;-69
2021/10/01 01:45:43;;;;;;;0.40;0.40;;;;;;;10.79;61.07;101992.09;682162;28;68284;-69
2021/10/01 01:46:05;;;;;;;0.40;0.40;;;;;;;10.79;61.29;101994.78;683950;28;44329;-69
2021/10/01 01:46:27;;;;;;;0.30;0.30;;;;;;;10.78;60.94;101992.25;684547;28;44373;-69
2021/10/01 01:47:02;;;;;;;0.40;0.40;;;;;;;10.77;61.10;101996.81;681516;28;159820;-69
2021/10/01 01:47:23;;;;;;;0.40;0.40;;;;;;;10.77;61.15;101990.56;684436;28;92259;-70
2021/10/01 01:47:45;;;;;;;0.40;0.40;;;;;;;10.75;61.34;101992.53;682409;28;44360;-70
2021/10/01 01:48:08;;;;;;;0.30;0.30;;;;;;;10.77;61.27;101995.97;680052;29;44038;-69
2021/10/01 01:48:31;;;;;;;0.40;0.40;;;;;;;10.75;61.28;101995.25;681419;28;69437;-69
2021/10/01 01:48:52;;;;;;;0.40;0.40;;;;;;;10.74;61.53;101991.69;681917;28;46412;-69
2021/10/01 01:49:14;;;;;;;0.40;0.40;;;;;;;10.75;61.31;101990.72;682566;28;46313;-69
2021/10/01 01:49:35;;;;;;;0.30;0.30;;;;;;;10.77;61.22;101995.97;683604;28;22433;-70
2021/10/01 01:49:59;;;;;;;0.40;0.40;;;;;;;10.75;61.29;101990.72;683356;28;69475;-69
2021/10/01 01:50:21;;;;;;;0.40;0.40;;;;;;;10.76;61.45;101992.38;683416;28;45275;-69
2021/10/01 01:50:42;;;;;;;0.40;0.40;;;;;;;10.77;61.58;101987.84;681259;28;44372;-69